createdAt,value
2023-08-17T00:00:15.135Z,88.19
2023-08-17T00:02:42.685Z,87.37
2023-08-17T00:05:10.424Z,87.29
2023-08-17T00:07:38.256Z,87.01
2023-08-17T00:10:06.009Z,87.00
2023-08-17T00:12:34.964Z,87.12
2023-08-17T00:15:02.504Z,86.79
2023-08-17T00:17:31.134Z,86.94
2023-08-17T00:19:58.784Z,88.53
2023-08-17T00:22:26.302Z,86.88
2023-08-17T00:24:53.834Z,87.69
2023-08-17T00:27:21.540Z,87.23
2023-08-17T00:29:50.589Z,92.76
2023-08-17T00:32:18.753Z,100.00
2023-08-17T00:34:46.950Z,100.00
2023-08-17T00:37:14.490Z,100.00
2023-08-17T00:39:44.950Z,100.00
2023-08-17T00:42:15.340Z,100.00
2023-08-17T00:44:42.972Z,100.00
2023-08-17T00:47:12.227Z,97.03
2023-08-17T00:49:39.918Z,92.80
2023-08-17T00:52:07.523Z,96.74
2023-08-17T00:54:35.066Z,100.00
2023-08-17T00:57:04.841Z,100.00
2023-08-17T00:59:36.683Z,94.56
2023-08-17T01:02:05.579Z,100.00
2023-08-17T01:04:34.919Z,100.00
2023-08-17T01:07:02.585Z,100.00
2023-08-17T01:09:30.365Z,92.55
2023-08-17T01:12:04.942Z,100.00
2023-08-17T01:14:38.628Z,100.00
2023-08-17T01:17:12.997Z,93.34
2023-08-17T01:19:43.344Z,92.51
2023-08-17T01:22:13.060Z,91.39
2023-08-17T01:24:43.181Z,90.78
2023-08-17T01:27:10.729Z,91.89
2023-08-17T01:29:38.474Z,90.64
2023-08-17T01:32:11.822Z,89.29
2023-08-17T01:34:46.623Z,89.98
2023-08-17T01:37:20.430Z,94.60
2023-08-17T01:39:54.246Z,93.64
2023-08-17T01:42:22.651Z,96.78
2023-08-17T01:44:50.401Z,91.43
2023-08-17T01:47:22.391Z,91.35
2023-08-17T01:49:50.056Z,91.72
2023-08-17T01:52:17.621Z,91.47
2023-08-17T01:54:45.127Z,95.78
2023-08-17T01:57:14.111Z,91.59
2023-08-17T01:59:41.592Z,90.12
2023-08-17T02:02:09.507Z,94.90
2023-08-17T02:04:37.086Z,90.94
2023-08-17T02:07:05.221Z,90.21
2023-08-17T02:09:32.777Z,90.18
2023-08-17T02:12:00.318Z,89.88
2023-08-17T02:14:29.121Z,97.42
2023-08-17T02:16:56.672Z,100.00
2023-08-17T02:19:24.222Z,99.76
2023-08-17T02:21:51.865Z,100.00
2023-08-17T02:24:19.593Z,100.00
2023-08-17T02:26:47.073Z,100.00
2023-08-17T02:29:14.584Z,100.00
2023-08-17T02:31:43.452Z,97.71
2023-08-17T02:34:11.176Z,100.00
2023-08-17T02:36:38.662Z,100.00
2023-08-17T02:39:06.728Z,100.00
2023-08-17T02:41:34.214Z,100.00
2023-08-17T02:44:03.214Z,100.00
2023-08-17T02:46:30.901Z,98.28
2023-08-17T02:48:59.801Z,96.32
2023-08-17T02:51:27.294Z,100.00
2023-08-17T02:53:54.792Z,100.00
2023-08-17T02:56:22.325Z,97.91
2023-08-17T02:58:49.918Z,93.02
2023-08-17T03:01:17.468Z,92.24
2023-08-17T03:03:44.984Z,90.81
2023-08-17T03:06:13.826Z,95.65
2023-08-17T03:08:45.701Z,94.91
2023-08-17T03:11:15.651Z,92.56
2023-08-17T03:13:43.236Z,95.17
2023-08-17T03:16:10.908Z,94.76
2023-08-17T03:18:38.465Z,93.32
2023-08-17T03:21:06.016Z,91.79
2023-08-17T03:23:35.674Z,91.43
2023-08-17T03:26:03.172Z,97.24
2023-08-17T03:28:30.695Z,95.50
2023-08-17T03:30:58.394Z,94.87
2023-08-17T03:33:25.898Z,94.67
2023-08-17T03:35:53.550Z,94.28
2023-08-17T03:38:21.178Z,93.59
2023-08-17T03:40:50.083Z,92.07
2023-08-17T03:43:17.685Z,91.57
2023-08-17T03:45:45.373Z,91.66
2023-08-17T03:48:13.383Z,91.22
2023-08-17T03:50:41.116Z,91.53
2023-08-17T03:53:08.622Z,91.62
2023-08-17T03:55:36.167Z,91.36
2023-08-17T03:58:05.540Z,91.42
2023-08-17T04:00:33.530Z,92.16
2023-08-17T04:03:01.051Z,91.36
2023-08-17T04:05:29.485Z,92.28
2023-08-17T04:07:57.076Z,91.94
2023-08-17T04:10:24.680Z,91.63
2023-08-17T04:12:53.174Z,91.34
2023-08-17T04:15:22.085Z,94.75
2023-08-17T04:17:52.606Z,95.84
2023-08-17T04:20:20.432Z,92.81
2023-08-17T04:22:48.024Z,92.80
2023-08-17T04:25:15.593Z,92.31
2023-08-17T04:27:45.906Z,92.25
2023-08-17T04:30:14.389Z,93.93
2023-08-17T04:32:43.480Z,92.18
2023-08-17T04:35:11.885Z,92.59
2023-08-17T04:37:39.449Z,91.87
2023-08-17T04:40:08.923Z,92.31
2023-08-17T04:42:36.437Z,93.29
2023-08-17T04:45:04.436Z,99.70
2023-08-17T04:47:32.024Z,94.05
2023-08-17T04:50:01.056Z,92.44
2023-08-17T04:52:28.548Z,92.80
2023-08-17T04:54:58.278Z,92.41
2023-08-17T04:57:26.009Z,92.09
2023-08-17T04:59:53.814Z,92.55
2023-08-17T05:02:24.773Z,92.59
2023-08-17T05:04:52.322Z,92.33
2023-08-17T05:07:21.425Z,91.55
2023-08-17T05:09:49.070Z,91.60
2023-08-17T05:12:16.557Z,91.79
2023-08-17T05:14:44.090Z,91.44
2023-08-17T05:17:11.664Z,91.22
2023-08-17T05:19:40.583Z,90.70
2023-08-17T05:22:13.109Z,89.03
2023-08-17T05:24:42.087Z,87.99
2023-08-17T05:27:09.773Z,88.82
2023-08-17T05:29:37.258Z,100.00
2023-08-17T05:32:05.287Z,100.00
2023-08-17T05:34:32.803Z,97.49
2023-08-17T05:37:00.302Z,99.62
2023-08-17T05:39:28.405Z,97.26
2023-08-17T05:41:57.358Z,100.00
2023-08-17T05:44:24.914Z,94.27
2023-08-17T05:46:52.407Z,100.00
2023-08-17T05:49:20.068Z,97.47
2023-08-17T05:51:47.808Z,93.51
2023-08-17T05:54:15.316Z,91.87
2023-08-17T05:56:45.639Z,93.44
2023-08-17T05:59:15.039Z,95.89
2023-08-17T06:01:42.801Z,94.75
2023-08-17T06:04:10.322Z,100.00
2023-08-17T06:06:38.139Z,100.00
2023-08-17T06:09:06.123Z,98.43
2023-08-17T06:11:33.675Z,98.47
2023-08-17T06:14:01.183Z,99.91
2023-08-17T06:16:30.118Z,100.00
2023-08-17T06:18:57.735Z,100.00
2023-08-17T06:21:25.282Z,100.00
2023-08-17T06:23:52.977Z,100.00
2023-08-17T06:26:20.573Z,100.00
2023-08-17T06:28:48.107Z,100.00
2023-08-17T06:31:16.689Z,100.00
2023-08-17T06:33:45.680Z,100.00
2023-08-17T06:36:17.282Z,100.00
2023-08-17T06:38:44.835Z,100.00
2023-08-17T06:41:12.483Z,100.00
2023-08-17T06:43:40.082Z,100.00
2023-08-17T06:46:07.618Z,100.00
2023-08-17T06:48:35.198Z,100.00
2023-08-17T06:51:05.706Z,100.00
2023-08-17T06:53:33.279Z,98.98
2023-08-17T06:56:02.872Z,100.00
2023-08-17T06:58:30.804Z,100.00
2023-08-17T07:01:01.408Z,100.00
2023-08-17T07:03:28.923Z,100.00
2023-08-17T07:05:56.501Z,99.25
2023-08-17T07:08:25.341Z,97.80
2023-08-17T07:10:52.888Z,100.00
2023-08-17T07:13:20.343Z,100.00
2023-08-17T07:15:48.051Z,99.51
2023-08-17T07:18:15.765Z,96.75
2023-08-17T07:20:44.428Z,99.35
2023-08-17T07:23:12.044Z,98.25
2023-08-17T07:25:41.104Z,100.00
2023-08-17T07:28:08.653Z,99.05
2023-08-17T07:30:36.237Z,100.00
2023-08-17T07:33:03.911Z,100.00
2023-08-17T07:35:31.534Z,97.98
2023-08-17T07:38:08.410Z,100.00
2023-08-17T07:40:36.862Z,98.48
2023-08-17T07:43:06.074Z,93.94
2023-08-17T07:45:33.746Z,93.95
2023-08-17T07:48:01.398Z,94.96
2023-08-17T07:50:28.997Z,94.79
2023-08-17T07:52:56.530Z,96.93
2023-08-17T07:55:24.142Z,97.10
2023-08-17T07:57:51.714Z,96.98
2023-08-17T08:00:20.943Z,97.63
2023-08-17T08:02:48.846Z,97.91
2023-08-17T08:05:16.494Z,96.19
2023-08-17T08:07:44.027Z,95.42
2023-08-17T08:10:11.608Z,95.88
2023-08-17T08:12:39.085Z,91.70
2023-08-17T08:15:07.473Z,97.39
2023-08-17T08:17:36.515Z,93.17
2023-08-17T08:20:04.329Z,95.37
2023-08-17T08:22:31.690Z,90.40
2023-08-17T08:24:59.795Z,89.29
2023-08-17T08:27:27.319Z,87.52
2023-08-17T08:29:54.860Z,89.46
2023-08-17T08:32:22.401Z,92.21
2023-08-17T08:34:51.585Z,95.33
2023-08-17T08:37:19.282Z,87.19
2023-08-17T08:39:54.323Z,83.71
2023-08-17T08:42:22.936Z,84.10
2023-08-17T08:44:51.539Z,83.09
2023-08-17T08:47:19.811Z,86.86
2023-08-17T08:49:59.512Z,87.29
2023-08-17T08:52:34.341Z,84.96
2023-08-17T08:55:07.522Z,84.46
2023-08-17T08:57:35.951Z,85.10
2023-08-17T09:00:04.873Z,82.37
2023-08-17T09:02:32.427Z,81.49
2023-08-17T09:05:02.204Z,81.93
2023-08-17T09:07:31.651Z,81.29
2023-08-17T09:09:59.144Z,80.27
2023-08-17T09:12:38.865Z,81.42
2023-08-17T09:15:08.880Z,79.62
2023-08-17T09:17:36.908Z,84.28
2023-08-17T09:20:08.410Z,80.51
2023-08-17T09:22:40.437Z,82.42
2023-08-17T09:25:08.955Z,82.61
2023-08-17T09:27:38.311Z,74.74
2023-08-17T09:30:07.387Z,79.82
2023-08-17T09:32:35.900Z,82.98
2023-08-17T09:35:05.548Z,77.59
2023-08-17T09:37:35.381Z,76.67
2023-08-17T09:40:03.539Z,76.00
2023-08-17T09:42:32.250Z,75.37
2023-08-17T09:45:01.903Z,76.62
2023-08-17T09:47:30.061Z,76.34
2023-08-17T09:49:58.533Z,77.21
2023-08-17T09:52:26.868Z,72.19
2023-08-17T09:54:57.401Z,72.39
2023-08-17T09:57:26.373Z,70.91
2023-08-17T09:59:56.435Z,72.29
2023-08-17T10:02:26.106Z,76.66
2023-08-17T10:04:55.161Z,74.64
2023-08-17T10:07:26.108Z,75.79
2023-08-17T10:10:02.080Z,76.28
2023-08-17T10:12:34.483Z,76.62
2023-08-17T10:15:10.282Z,71.92
2023-08-17T10:17:46.206Z,71.87
2023-08-17T10:20:16.398Z,69.45
2023-08-17T10:22:50.961Z,72.45
2023-08-17T10:25:22.063Z,71.54
2023-08-17T10:27:52.756Z,71.20
2023-08-17T10:30:22.579Z,71.46
2023-08-17T10:32:50.549Z,70.19
2023-08-17T10:35:18.619Z,68.25
2023-08-17T10:37:46.707Z,69.52
2023-08-17T10:40:15.849Z,69.71
2023-08-17T10:42:57.431Z,73.83
2023-08-17T10:45:32.771Z,67.26
2023-08-17T10:48:29.791Z,68.09
2023-08-17T10:51:06.231Z,67.22
2023-08-17T10:53:39.911Z,71.72
2023-08-17T10:56:09.889Z,68.69
2023-08-17T10:58:38.834Z,70.56
2023-08-17T11:01:06.748Z,65.37
2023-08-17T11:03:34.921Z,67.11
2023-08-17T11:06:18.397Z,67.56
2023-08-17T11:08:55.215Z,64.70
2023-08-17T11:11:24.070Z,64.24
2023-08-17T11:13:57.899Z,69.04
2023-08-17T11:16:26.542Z,65.41
2023-08-17T11:18:56.714Z,68.57
2023-08-17T11:21:24.348Z,65.04
2023-08-17T11:23:54.410Z,66.41
2023-08-17T11:26:22.165Z,66.26
2023-08-17T11:28:52.219Z,69.51
2023-08-17T11:31:21.097Z,66.33
2023-08-17T11:36:24.046Z,63.45
2023-08-17T11:38:51.659Z,65.79
2023-08-17T11:41:19.946Z,64.94
2023-08-17T11:43:48.069Z,68.13
2023-08-17T11:46:16.268Z,64.53
2023-08-17T11:48:45.666Z,62.08
2023-08-17T11:51:13.987Z,65.46
2023-08-17T11:53:42.336Z,63.70
2023-08-17T11:56:11.381Z,61.32
2023-08-17T11:58:43.691Z,60.64
2023-08-17T12:01:12.892Z,61.18
2023-08-17T12:03:42.511Z,60.75
2023-08-17T12:06:13.725Z,66.35
2023-08-17T12:08:46.455Z,67.24
2023-08-17T12:11:14.830Z,64.47
2023-08-17T12:13:42.301Z,63.99
2023-08-17T12:16:16.908Z,62.02
2023-08-17T12:18:46.118Z,60.69
2023-08-17T12:21:15.132Z,65.11
2023-08-17T12:23:43.381Z,65.73
2023-08-17T12:26:10.993Z,66.69
2023-08-17T12:28:38.385Z,64.53
2023-08-17T12:31:06.008Z,62.90
2023-08-17T12:33:33.529Z,65.06
2023-08-17T12:36:01.099Z,60.41
2023-08-17T12:38:29.984Z,57.50
2023-08-17T12:40:59.068Z,62.08
2023-08-17T12:43:26.571Z,63.57
2023-08-17T12:45:54.032Z,63.56
2023-08-17T12:48:21.604Z,64.94
2023-08-17T12:50:49.069Z,63.20
2023-08-17T12:53:16.570Z,56.69
2023-08-17T12:55:45.647Z,58.70
2023-08-17T12:58:13.219Z,62.83
2023-08-17T13:00:40.666Z,63.58
2023-08-17T13:03:09.854Z,65.94
2023-08-17T13:05:37.752Z,65.81
2023-08-17T13:08:05.486Z,64.94
2023-08-17T13:10:33.005Z,57.66
2023-08-17T13:13:01.824Z,58.39
2023-08-17T13:15:29.372Z,56.51
2023-08-17T13:17:56.837Z,62.94
2023-08-17T13:20:24.334Z,63.60
2023-08-17T13:22:52.081Z,63.05
2023-08-17T13:25:19.695Z,60.91
2023-08-17T13:27:47.057Z,59.36
2023-08-17T13:30:15.944Z,60.88
2023-08-17T13:32:46.470Z,55.09
2023-08-17T13:35:14.422Z,60.86
2023-08-17T13:37:43.169Z,62.02
2023-08-17T13:40:11.522Z,62.72
2023-08-17T13:42:39.047Z,63.75
2023-08-17T13:45:07.730Z,59.04
2023-08-17T13:47:36.609Z,59.93
2023-08-17T13:50:07.626Z,59.61
2023-08-17T13:52:35.202Z,65.78
2023-08-17T13:55:02.583Z,59.40
2023-08-17T13:57:30.141Z,63.63
2023-08-17T13:59:57.562Z,57.50
2023-08-17T14:02:27.139Z,60.50
2023-08-17T14:04:57.220Z,65.92
2023-08-17T14:07:24.823Z,58.26
2023-08-17T14:10:05.551Z,56.59
2023-08-17T14:12:35.866Z,56.50
2023-08-17T14:15:03.654Z,67.30
2023-08-17T14:17:31.130Z,71.74
2023-08-17T14:20:00.429Z,74.36
2023-08-17T14:22:28.291Z,77.07
2023-08-17T14:24:56.328Z,78.40
2023-08-17T14:27:23.686Z,77.15
2023-08-17T14:29:51.190Z,78.95
2023-08-17T14:32:18.701Z,76.25
2023-08-17T14:37:34.988Z,77.44
2023-08-17T14:40:02.495Z,80.92
2023-08-17T14:42:54.341Z,80.62
2023-08-17T14:45:22.390Z,82.16
2023-08-17T14:47:50.331Z,80.68
2023-08-17T14:50:17.916Z,80.95
2023-08-17T14:52:46.717Z,84.06
2023-08-17T14:55:14.537Z,81.91
2023-08-17T14:57:42.018Z,83.65
2023-08-17T15:00:16.705Z,88.29
2023-08-17T15:02:44.943Z,86.65
2023-08-17T15:05:14.770Z,87.85
2023-08-17T15:07:42.430Z,84.40
2023-08-17T15:10:11.621Z,86.54
2023-08-17T15:12:39.150Z,85.79
2023-08-17T15:15:07.919Z,81.34
2023-08-17T15:17:35.772Z,82.81
2023-08-17T15:20:03.575Z,76.03
2023-08-17T15:22:31.153Z,76.10
2023-08-17T15:24:58.728Z,78.33
2023-08-17T15:27:28.822Z,79.11
2023-08-17T15:29:56.655Z,78.06
2023-08-17T15:32:24.151Z,75.05
2023-08-17T15:34:53.327Z,76.72
2023-08-17T15:37:21.621Z,74.98
2023-08-17T15:39:49.144Z,77.47
2023-08-17T15:42:17.123Z,79.38
2023-08-17T15:44:46.015Z,79.59
2023-08-17T15:47:13.728Z,78.42
2023-08-17T15:49:41.107Z,78.42
2023-08-17T15:52:11.095Z,79.84
2023-08-17T15:54:39.810Z,77.12
2023-08-17T15:57:07.364Z,81.63
2023-08-17T15:59:35.149Z,81.28
2023-08-17T16:02:04.510Z,81.30
2023-08-17T16:04:31.995Z,81.80
2023-08-17T16:06:59.471Z,85.64
2023-08-17T16:09:30.607Z,90.84
2023-08-17T16:11:58.609Z,89.46
2023-08-17T16:14:26.399Z,94.75
2023-08-17T16:16:56.622Z,97.31
2023-08-17T16:19:27.492Z,99.76
2023-08-17T16:21:55.077Z,100.00
2023-08-17T16:26:53.420Z,100.00
2023-08-17T16:29:20.942Z,100.00
2023-08-17T16:32:00.827Z,100.00
2023-08-17T16:34:30.692Z,100.00
2023-08-17T16:36:58.537Z,95.41
2023-08-17T16:39:26.393Z,95.14
2023-08-17T16:41:54.074Z,97.71
2023-08-17T16:44:21.959Z,97.14
2023-08-17T16:46:53.878Z,97.05
2023-08-17T16:49:21.397Z,100.00
2023-08-17T16:51:50.350Z,100.00
2023-08-17T16:54:17.907Z,100.00
2023-08-17T16:56:45.461Z,97.70
2023-08-17T16:59:14.298Z,98.56
2023-08-17T17:01:41.962Z,96.94
2023-08-17T17:04:09.534Z,100.00
2023-08-17T17:06:37.143Z,94.65
2023-08-17T17:09:06.569Z,93.27
2023-08-17T17:11:34.222Z,100.00
2023-08-17T17:14:01.947Z,100.00
2023-08-17T17:16:29.472Z,100.00
2023-08-17T17:18:59.234Z,99.81
2023-08-17T17:21:27.084Z,100.00
2023-08-17T17:23:54.698Z,100.00
2023-08-17T17:26:23.618Z,100.00
2023-08-17T17:28:51.253Z,100.00
2023-08-17T17:31:21.797Z,96.76
2023-08-17T17:33:49.537Z,95.78
2023-08-17T17:36:17.029Z,99.32
2023-08-17T17:38:44.546Z,97.87
2023-08-17T17:41:12.037Z,97.51
2023-08-17T17:43:40.868Z,99.81
2023-08-17T17:46:08.385Z,99.10
2023-08-17T17:48:36.165Z,100.00
2023-08-17T17:51:03.561Z,100.00
2023-08-17T17:53:31.324Z,96.06
2023-08-17T17:55:58.884Z,94.68
2023-08-17T17:58:26.547Z,97.65
2023-08-17T18:00:55.536Z,95.42
2023-08-17T18:03:23.318Z,94.89
2023-08-17T18:05:51.690Z,95.47
2023-08-17T18:08:19.192Z,91.56
2023-08-17T18:10:47.005Z,92.82
2023-08-17T18:13:14.394Z,100.00
2023-08-17T18:15:42.890Z,100.00
2023-08-17T18:18:11.882Z,100.00
2023-08-17T18:20:39.654Z,100.00
2023-08-17T18:23:08.691Z,100.00
2023-08-17T18:25:36.221Z,100.00
2023-08-17T18:28:05.628Z,96.90
2023-08-17T18:30:33.386Z,100.00
2023-08-17T18:33:00.920Z,100.00
2023-08-17T18:35:29.969Z,100.00
2023-08-17T18:37:57.522Z,100.00
2023-08-17T18:40:25.062Z,100.00
2023-08-17T18:42:52.651Z,100.00
2023-08-17T18:45:21.114Z,100.00
2023-08-17T18:47:48.655Z,100.00
2023-08-17T18:50:16.697Z,100.00
2023-08-17T18:52:45.574Z,100.00
2023-08-17T18:55:14.354Z,100.00
2023-08-17T18:57:42.403Z,100.00
2023-08-17T19:00:12.245Z,100.00
2023-08-17T19:02:40.666Z,100.00
2023-08-17T19:05:09.243Z,100.00
2023-08-17T19:07:36.862Z,100.00
2023-08-17T19:10:06.883Z,100.00
2023-08-17T19:12:34.489Z,100.00
2023-08-17T19:15:02.056Z,100.00
2023-08-17T19:17:32.281Z,100.00
2023-08-17T19:20:04.097Z,100.00
2023-08-17T19:22:31.603Z,100.00
2023-08-17T19:25:03.527Z,100.00
2023-08-17T19:27:32.747Z,100.00
2023-08-17T19:30:00.403Z,99.99
2023-08-17T19:32:27.992Z,99.27
2023-08-17T19:34:55.497Z,98.83
2023-08-17T19:37:23.052Z,95.38
2023-08-17T19:39:50.582Z,100.00
2023-08-17T19:42:21.220Z,96.94
2023-08-17T19:44:52.857Z,98.19
2023-08-17T19:47:21.139Z,100.00
2023-08-17T19:49:49.093Z,99.56
2023-08-17T19:52:17.576Z,100.00
2023-08-17T19:54:49.523Z,100.00
2023-08-17T19:57:17.103Z,99.11
2023-08-17T19:59:44.669Z,100.00
2023-08-17T20:02:15.875Z,100.00
2023-08-17T20:04:43.478Z,100.00
2023-08-17T20:07:11.182Z,100.00
2023-08-17T20:09:38.708Z,100.00
2023-08-17T20:12:07.475Z,100.00
2023-08-17T20:14:35.966Z,100.00
2023-08-17T20:17:04.187Z,100.00
2023-08-17T20:19:33.678Z,100.00
2023-08-17T20:22:03.551Z,100.00
2023-08-17T20:24:31.342Z,100.00
2023-08-17T20:27:00.885Z,100.00
2023-08-17T20:29:29.619Z,100.00
2023-08-17T20:31:57.375Z,100.00
2023-08-17T20:34:24.898Z,100.00
2023-08-17T20:36:53.813Z,100.00
2023-08-17T20:39:21.328Z,100.00
2023-08-17T20:41:49.067Z,99.83
2023-08-17T20:44:16.624Z,99.64
2023-08-17T20:46:44.154Z,96.88
2023-08-17T20:49:11.708Z,97.72
2023-08-17T20:51:40.145Z,98.54
2023-08-17T20:54:13.279Z,100.00
2023-08-17T20:56:40.759Z,99.84
2023-08-17T20:59:08.322Z,100.00
2023-08-17T21:01:36.372Z,100.00
2023-08-17T21:04:04.137Z,100.00
2023-08-17T21:06:31.690Z,100.00
2023-08-17T21:08:59.174Z,99.81
2023-08-17T21:11:30.466Z,100.00
2023-08-17T21:13:58.072Z,100.00
2023-08-17T21:16:25.595Z,100.00
2023-08-17T21:18:58.268Z,100.00
2023-08-17T21:21:25.845Z,100.00
2023-08-17T21:23:53.380Z,100.00
2023-08-17T21:26:20.950Z,100.00
2023-08-17T21:28:49.839Z,100.00
2023-08-17T21:31:17.550Z,99.55
2023-08-17T21:33:45.174Z,100.00
2023-08-17T21:36:12.789Z,100.00
2023-08-17T21:38:40.402Z,100.00
2023-08-17T21:41:08.017Z,100.00
2023-08-17T21:43:35.663Z,100.00
2023-08-17T21:46:04.562Z,96.39
2023-08-17T21:48:32.096Z,98.60
2023-08-17T21:50:59.739Z,100.00
2023-08-17T21:53:27.299Z,95.67
2023-08-17T21:55:55.021Z,93.49
2023-08-17T21:58:22.652Z,93.01
2023-08-17T22:00:53.089Z,92.41
2023-08-17T22:03:22.351Z,100.00
2023-08-17T22:05:53.161Z,94.22
2023-08-17T22:08:20.683Z,92.10
2023-08-17T22:10:49.375Z,98.58
2023-08-17T22:13:16.884Z,96.55
2023-08-17T22:15:44.536Z,94.37
2023-08-17T22:18:12.126Z,93.58
2023-08-17T22:20:41.834Z,93.07
2023-08-17T22:23:09.461Z,95.67
2023-08-17T22:25:37.197Z,96.94
2023-08-17T22:28:05.315Z,95.02
2023-08-17T22:30:32.864Z,92.30
2023-08-17T22:33:00.589Z,94.61
2023-08-17T22:35:28.154Z,93.03
2023-08-17T22:37:57.025Z,91.74
2023-08-17T22:40:24.629Z,91.00
2023-08-17T22:42:52.320Z,90.68
2023-08-17T22:45:19.815Z,91.24
2023-08-17T22:47:47.326Z,91.30
2023-08-17T22:50:14.858Z,91.15
2023-08-17T22:52:42.429Z,90.06
2023-08-17T22:55:11.317Z,90.18
2023-08-17T22:57:38.804Z,89.76
2023-08-17T23:00:07.991Z,89.86
2023-08-17T23:02:35.661Z,89.68
2023-08-17T23:05:03.384Z,89.39
2023-08-17T23:07:31.209Z,90.10
2023-08-17T23:09:58.790Z,90.94
2023-08-17T23:12:27.741Z,90.43
2023-08-17T23:14:55.217Z,90.08
2023-08-17T23:17:22.713Z,90.38
2023-08-17T23:19:50.376Z,90.38
2023-08-17T23:22:19.172Z,89.28
2023-08-17T23:24:46.650Z,89.34
2023-08-17T23:27:14.104Z,89.30
2023-08-17T23:29:43.064Z,89.14
2023-08-17T23:32:25.337Z,89.03
2023-08-17T23:34:54.201Z,89.07
2023-08-17T23:37:21.817Z,89.74
2023-08-17T23:39:49.359Z,89.60
2023-08-17T23:42:16.801Z,89.79
2023-08-17T23:44:45.649Z,90.59
2023-08-17T23:47:13.812Z,90.01
2023-08-17T23:49:41.546Z,89.69
2023-08-17T23:52:09.140Z,89.90
2023-08-17T23:54:37.093Z,89.82
2023-08-17T23:57:04.629Z,95.59
2023-08-17T23:59:32.117Z,94.88
